createdAt,value
2022-12-23T00:00:59.575Z,24.05
2022-12-23T00:03:30.872Z,24.30
2022-12-23T00:06:01.882Z,23.60
2022-12-23T00:08:32.066Z,23.77
2022-12-23T00:11:04.012Z,21.58
2022-12-23T00:13:57.808Z,20.52
2022-12-23T00:16:28.154Z,17.85
2022-12-23T00:18:58.356Z,16.98
2022-12-23T00:21:28.465Z,14.38
2022-12-23T00:23:58.586Z,14.77
2022-12-23T00:26:29.065Z,15.68
2022-12-23T00:28:59.274Z,16.63
2022-12-23T00:31:29.428Z,16.45
2022-12-23T00:33:59.648Z,16.58
2022-12-23T00:36:31.188Z,12.32
2022-12-23T00:39:19.895Z,12.13
2022-12-23T00:42:08.401Z,12.98
2022-12-23T00:44:38.613Z,9.63
2022-12-23T00:47:28.799Z,8.18
2022-12-23T00:49:59.143Z,7.55
2022-12-23T00:52:29.208Z,8.80
2022-12-23T00:55:00.307Z,7.60
2022-12-23T00:57:30.363Z,8.93
2022-12-23T01:00:00.506Z,8.38
2022-12-23T01:02:49.213Z,9.45
2022-12-23T01:05:37.693Z,7.18
2022-12-23T01:08:12.084Z,7.32
2022-12-23T01:10:42.224Z,7.10
2022-12-23T01:13:12.327Z,7.57
2022-12-23T01:15:42.464Z,6.78
2022-12-23T01:18:12.662Z,6.95
2022-12-23T01:20:42.843Z,6.57
2022-12-23T01:23:13.075Z,6.60
2022-12-23T01:25:43.212Z,7.03
2022-12-23T01:28:13.348Z,8.07
2022-12-23T01:30:43.439Z,8.93
2022-12-23T01:33:13.636Z,10.13
2022-12-23T01:35:43.681Z,19.00
2022-12-23T01:38:14.264Z,19.55
2022-12-23T01:40:46.013Z,21.50
2022-12-23T01:43:20.311Z,21.38
2022-12-23T01:45:50.560Z,17.13
2022-12-23T01:48:26.884Z,15.82
2022-12-23T01:51:03.159Z,16.90
2022-12-23T01:53:40.966Z,15.57
2022-12-23T01:56:24.085Z,18.02
2022-12-23T01:59:03.353Z,15.88
2022-12-23T02:01:51.987Z,15.15
2022-12-23T02:04:25.037Z,15.38
2022-12-23T02:07:14.019Z,15.48
2022-12-23T02:09:44.130Z,14.05
2022-12-23T02:12:50.714Z,14.23
2022-12-23T02:15:57.252Z,14.85
2022-12-23T02:18:45.683Z,15.30
2022-12-23T02:21:39.366Z,18.35
2022-12-23T02:24:45.040Z,19.05
2022-12-23T02:27:30.312Z,19.25
2022-12-23T02:30:22.234Z,20.67
2022-12-23T02:33:30.228Z,26.90
2022-12-23T02:36:24.226Z,20.45
2022-12-23T02:38:58.238Z,17.45
2022-12-23T02:41:34.039Z,13.95
2022-12-23T02:44:55.091Z,11.15
2022-12-23T02:47:31.268Z,7.90
2022-12-23T02:50:09.463Z,8.50
2022-12-23T02:52:42.073Z,8.93
2022-12-23T02:55:16.914Z,8.30
2022-12-23T02:57:50.061Z,7.97
2022-12-23T03:00:21.549Z,7.70
2022-12-23T03:02:52.020Z,6.53
2022-12-23T03:05:41.685Z,7.07
2022-12-23T03:08:20.811Z,5.32
2022-12-23T03:11:10.822Z,7.05
2022-12-23T03:14:04.573Z,7.50
2022-12-23T03:16:45.857Z,7.82
2022-12-23T03:19:20.907Z,7.20
2022-12-23T03:22:07.452Z,6.97
2022-12-23T03:24:54.591Z,7.47
2022-12-23T03:27:41.424Z,5.57
2022-12-23T03:32:49.888Z,5.88
2022-12-23T03:35:24.601Z,6.63
2022-12-23T03:37:56.391Z,10.95
2022-12-23T03:40:58.748Z,10.35
2022-12-23T03:43:48.329Z,13.63
2022-12-23T03:46:31.002Z,14.35
2022-12-23T03:49:09.317Z,18.95
2022-12-23T03:51:54.105Z,19.40
2022-12-23T03:54:30.961Z,16.75
2022-12-23T03:57:05.132Z,13.82
2022-12-23T03:59:38.821Z,14.90
2022-12-23T04:02:34.411Z,16.55
2022-12-23T04:05:27.209Z,12.20
2022-12-23T04:08:07.168Z,12.20
2022-12-23T04:10:37.806Z,10.57
2022-12-23T04:13:08.638Z,10.05
2022-12-23T04:15:43.919Z,8.57
2022-12-23T04:18:14.176Z,8.75
2022-12-23T04:20:44.562Z,8.43
2022-12-23T04:23:14.725Z,9.73
2022-12-23T04:25:44.874Z,7.22
2022-12-23T04:28:15.034Z,6.75
2022-12-23T04:30:45.123Z,7.72
2022-12-23T04:33:15.311Z,7.13
2022-12-23T04:35:45.516Z,5.80
2022-12-23T04:38:15.766Z,5.65
2022-12-23T04:40:49.069Z,5.60
2022-12-23T04:43:19.260Z,6.45
2022-12-23T04:45:52.977Z,6.63
2022-12-23T04:48:23.133Z,8.00
2022-12-23T04:50:53.686Z,12.60
2022-12-23T04:53:23.906Z,11.73
2022-12-23T04:55:54.110Z,26.38
2022-12-23T04:58:25.277Z,17.13
2022-12-23T05:01:07.738Z,30.90
2022-12-23T05:03:39.164Z,24.33
2022-12-23T05:06:09.393Z,15.95
2022-12-23T05:08:39.597Z,16.85
2022-12-23T05:11:09.756Z,11.73
2022-12-23T05:13:39.903Z,9.05
2022-12-23T05:16:10.101Z,7.65
2022-12-23T05:18:40.262Z,7.18
2022-12-23T05:21:10.425Z,7.68
2022-12-23T05:23:40.653Z,6.97
2022-12-23T05:26:11.494Z,7.28
2022-12-23T05:28:43.121Z,7.32
2022-12-23T05:31:14.087Z,7.63
2022-12-23T05:33:44.469Z,6.80
2022-12-23T05:36:14.699Z,8.23
2022-12-23T05:38:44.893Z,7.80
2022-12-23T05:41:16.817Z,7.85
2022-12-23T05:43:46.936Z,7.57
2022-12-23T05:46:22.663Z,7.13
2022-12-23T05:48:56.274Z,8.48
2022-12-23T05:51:26.424Z,7.90
2022-12-23T05:53:56.559Z,7.35
2022-12-23T05:56:26.730Z,7.53
2022-12-23T05:58:56.880Z,8.52
2022-12-23T06:01:27.060Z,11.27
2022-12-23T06:03:57.488Z,7.53
2022-12-23T06:06:27.776Z,11.45
2022-12-23T06:09:00.102Z,8.48
2022-12-23T06:11:30.653Z,6.85
2022-12-23T06:14:00.880Z,9.93
2022-12-23T06:16:31.011Z,7.07
2022-12-23T06:19:01.293Z,8.73
2022-12-23T06:21:32.088Z,8.90
2022-12-23T06:24:02.225Z,8.52
2022-12-23T06:26:33.752Z,8.07
2022-12-23T06:29:04.681Z,9.68
2022-12-23T06:31:34.917Z,7.30
2022-12-23T06:34:05.396Z,7.90
2022-12-23T06:36:35.574Z,8.55
2022-12-23T06:39:05.710Z,8.63
2022-12-23T06:41:35.837Z,11.45
2022-12-23T06:44:07.037Z,9.77
2022-12-23T06:46:37.234Z,9.30
2022-12-23T06:49:13.133Z,8.23
2022-12-23T06:51:43.806Z,7.43
2022-12-23T06:54:14.093Z,9.18
2022-12-23T06:56:44.251Z,8.80
2022-12-23T06:59:14.513Z,9.13
2022-12-23T07:01:44.783Z,9.82
2022-12-23T07:04:15.036Z,10.13
2022-12-23T07:06:45.247Z,10.43
2022-12-23T07:09:15.803Z,8.40
2022-12-23T07:11:46.186Z,8.57
2022-12-23T07:14:16.364Z,8.93
2022-12-23T07:16:46.580Z,7.88
2022-12-23T07:19:16.783Z,8.98
2022-12-23T07:21:47.051Z,9.25
2022-12-23T07:24:17.638Z,10.52
2022-12-23T07:26:48.423Z,8.55
2022-12-23T07:29:18.613Z,10.27
2022-12-23T07:31:51.302Z,10.02
2022-12-23T07:34:21.546Z,11.20
2022-12-23T07:36:51.608Z,8.95
2022-12-23T07:39:22.094Z,8.55
2022-12-23T07:42:09.097Z,8.90
2022-12-23T07:44:42.611Z,9.82
2022-12-23T07:47:13.148Z,7.90
2022-12-23T07:49:43.361Z,8.48
2022-12-23T07:52:13.407Z,7.43
2022-12-23T07:54:43.818Z,7.78
2022-12-23T07:57:13.971Z,6.93
2022-12-23T07:59:44.041Z,7.35
2022-12-23T08:02:14.205Z,7.05
2022-12-23T08:04:46.551Z,7.43
2022-12-23T08:07:16.873Z,8.43
2022-12-23T08:09:47.067Z,8.23
2022-12-23T08:12:17.189Z,9.40
2022-12-23T08:14:48.610Z,7.95
2022-12-23T08:17:21.627Z,8.25
2022-12-23T08:19:51.825Z,12.90
2022-12-23T08:22:22.026Z,7.20
2022-12-23T08:24:52.841Z,8.77
2022-12-23T08:27:23.038Z,8.35
2022-12-23T08:29:53.150Z,7.95
2022-12-23T08:32:27.245Z,8.23
2022-12-23T08:34:57.807Z,8.80
2022-12-23T08:37:27.984Z,15.07
2022-12-23T08:39:58.193Z,11.43
2022-12-23T08:42:28.407Z,12.13
2022-12-23T08:44:58.943Z,9.77
2022-12-23T08:47:29.156Z,10.20
2022-12-23T08:49:59.371Z,9.20
2022-12-23T08:52:29.542Z,8.40
2022-12-23T08:54:59.677Z,8.80
2022-12-23T08:57:29.728Z,8.38
2022-12-23T08:59:59.914Z,9.32
2022-12-23T09:02:30.087Z,8.65
2022-12-23T09:05:00.512Z,9.73
2022-12-23T09:07:32.014Z,9.63
2022-12-23T09:10:02.562Z,9.10
2022-12-23T09:12:32.731Z,9.38
2022-12-23T09:15:03.032Z,10.15
2022-12-23T09:17:33.484Z,12.48
2022-12-23T09:20:04.141Z,13.73
2022-12-23T09:22:34.968Z,10.23
2022-12-23T09:25:05.725Z,14.20
2022-12-23T09:27:35.905Z,10.57
2022-12-23T09:30:06.751Z,10.98
2022-12-23T09:32:37.619Z,11.50
2022-12-23T09:35:09.116Z,9.93
2022-12-23T09:37:39.270Z,8.60
2022-12-23T09:40:14.650Z,11.20
2022-12-23T09:43:03.903Z,10.32
2022-12-23T09:46:00.348Z,11.52
2022-12-23T09:51:06.137Z,10.27
2022-12-23T09:54:06.254Z,8.45
2022-12-23T09:56:58.180Z,11.43
2022-12-23T09:59:57.307Z,10.02
2022-12-23T10:02:30.896Z,12.73
2022-12-23T10:05:11.544Z,12.43
2022-12-23T10:07:57.643Z,11.18
2022-12-23T10:10:43.577Z,11.23
2022-12-23T10:13:38.526Z,11.70
2022-12-23T10:16:16.010Z,13.15
2022-12-23T10:19:09.096Z,9.23
2022-12-23T10:21:49.230Z,14.15
2022-12-23T10:24:29.383Z,11.60
2022-12-23T10:27:30.109Z,11.20
2022-12-23T10:30:34.357Z,13.73
2022-12-23T10:33:03.300Z,10.00
2022-12-23T10:35:46.885Z,13.10
2022-12-23T10:38:38.568Z,10.38
2022-12-23T10:41:39.406Z,11.15
2022-12-23T10:44:24.662Z,12.65
2022-12-23T10:47:03.251Z,13.80
2022-12-23T10:49:59.933Z,9.57
2022-12-23T10:55:03.002Z,7.78
2022-12-23T10:57:33.274Z,8.93
2022-12-23T11:00:18.719Z,11.68
2022-12-23T11:03:29.309Z,10.30
2022-12-23T11:06:00.582Z,9.15
2022-12-23T11:08:32.139Z,9.68
2022-12-23T11:11:02.518Z,11.02
2022-12-23T11:13:32.602Z,10.02
2022-12-23T11:16:25.561Z,15.40
2022-12-23T11:19:01.612Z,10.18
2022-12-23T11:21:33.507Z,11.35
2022-12-23T11:24:17.931Z,9.60
2022-12-23T11:27:09.800Z,11.07
2022-12-23T11:29:50.908Z,9.95
2022-12-23T11:32:25.363Z,13.38
2022-12-23T11:34:56.663Z,14.57
2022-12-23T11:37:41.221Z,11.90
2022-12-23T11:40:24.535Z,11.18
2022-12-23T11:43:01.246Z,11.13
2022-12-23T11:45:35.857Z,11.88
2022-12-23T11:48:26.361Z,10.40
2022-12-23T11:51:02.060Z,10.45
2022-12-23T11:53:32.547Z,9.73
2022-12-23T11:56:15.004Z,10.93
2022-12-23T11:58:54.100Z,10.95
2022-12-23T12:01:25.524Z,9.05
2022-12-23T12:04:09.327Z,11.70
2022-12-23T12:06:48.404Z,13.00
2022-12-23T12:09:24.201Z,9.57
2022-12-23T12:11:58.409Z,10.70
2022-12-23T12:14:32.417Z,10.55
2022-12-23T12:17:19.637Z,10.32
2022-12-23T12:20:01.806Z,12.13
2022-12-23T12:22:56.645Z,11.10
2022-12-23T12:25:42.591Z,10.52
2022-12-23T12:28:19.680Z,12.23
2022-12-23T12:30:58.824Z,11.13
2022-12-23T12:33:39.885Z,11.80
2022-12-23T12:36:26.113Z,11.45
2022-12-23T12:39:00.096Z,12.93
2022-12-23T12:41:38.402Z,11.63
2022-12-23T12:44:29.218Z,11.02
2022-12-23T12:47:36.093Z,11.52
2022-12-23T12:50:06.813Z,12.20
2022-12-23T12:52:40.789Z,11.40
2022-12-23T12:55:25.541Z,11.63
2022-12-23T12:57:55.816Z,10.05
2022-12-23T13:00:26.119Z,11.15
2022-12-23T13:03:26.589Z,12.65
2022-12-23T13:06:29.050Z,11.43
2022-12-23T13:09:06.479Z,11.93
2022-12-23T13:12:17.645Z,14.07
2022-12-23T13:15:21.510Z,14.35
2022-12-23T13:18:20.847Z,14.55
2022-12-23T13:21:04.600Z,13.38
2022-12-23T13:23:43.989Z,17.63
2022-12-23T13:26:25.718Z,13.85
2022-12-23T13:29:01.585Z,11.73
2022-12-23T13:32:06.723Z,13.18
2022-12-23T13:34:52.081Z,11.35
2022-12-23T13:37:56.463Z,12.48
2022-12-23T13:40:49.947Z,14.15
2022-12-23T13:43:24.016Z,12.15
2022-12-23T13:45:56.093Z,13.45
2022-12-23T13:48:48.563Z,13.30
2022-12-23T13:51:36.368Z,16.73
2022-12-23T13:54:44.889Z,13.65
2022-12-23T13:57:23.887Z,13.10
2022-12-23T14:00:33.349Z,12.93
2022-12-23T14:03:06.082Z,12.63
2022-12-23T14:05:57.596Z,14.48
2022-12-23T14:08:39.554Z,13.60
2022-12-23T14:11:22.115Z,15.45
2022-12-23T14:13:52.307Z,15.13
2022-12-23T14:16:48.030Z,14.27
2022-12-23T14:19:36.245Z,18.10
2022-12-23T14:22:12.060Z,16.30
2022-12-23T14:25:32.807Z,15.65
2022-12-23T14:28:29.219Z,15.30
2022-12-23T14:31:00.149Z,16.02
2022-12-23T14:33:35.045Z,16.88
2022-12-23T14:36:25.724Z,24.73
2022-12-23T14:39:14.204Z,18.25
2022-12-23T14:41:57.530Z,16.08
2022-12-23T14:44:36.115Z,14.50
2022-12-23T14:47:31.278Z,14.85
2022-12-23T14:50:36.980Z,12.68
2022-12-23T14:53:31.228Z,15.35
2022-12-23T14:56:14.957Z,16.25
2022-12-23T14:59:00.034Z,15.55
2022-12-23T15:01:50.378Z,15.80
2022-12-23T15:04:40.787Z,14.85
2022-12-23T15:07:26.817Z,20.63
2022-12-23T15:10:01.138Z,14.32
2022-12-23T15:12:34.971Z,15.05
2022-12-23T15:15:16.626Z,15.30
2022-12-23T15:17:47.364Z,15.38
2022-12-23T15:20:24.287Z,13.98
2022-12-23T15:23:00.844Z,15.27
2022-12-23T15:25:34.064Z,15.00
2022-12-23T15:28:04.772Z,16.52
2022-12-23T15:30:45.076Z,15.57
2022-12-23T15:34:00.576Z,16.75
2022-12-23T15:38:42.313Z,17.33
2022-12-23T15:41:17.415Z,17.50
2022-12-23T15:43:47.645Z,19.30
2022-12-23T15:46:28.639Z,16.75
2022-12-23T15:49:00.283Z,15.13
2022-12-23T15:54:35.434Z,18.95
2022-12-23T15:57:06.093Z,18.15
2022-12-23T15:59:39.625Z,15.73
2022-12-23T16:02:59.556Z,17.33
2022-12-23T16:05:08.199Z,15.25
2022-12-23T16:07:41.336Z,14.68
2022-12-23T16:10:20.504Z,14.23
2022-12-23T16:12:51.977Z,14.18
2022-12-23T16:15:29.329Z,15.70
2022-12-23T16:18:25.562Z,14.00
2022-12-23T16:21:00.686Z,16.75
2022-12-23T16:23:36.738Z,18.55
2022-12-23T16:26:11.313Z,15.15
2022-12-23T16:28:45.309Z,16.35
2022-12-23T16:31:18.328Z,15.43
2022-12-23T16:33:56.191Z,15.07
2022-12-23T16:36:26.363Z,15.32
2022-12-23T16:39:00.447Z,15.13
2022-12-23T16:41:33.753Z,15.32
2022-12-23T16:44:04.605Z,15.45
2022-12-23T16:46:39.507Z,17.15
2022-12-23T16:49:15.994Z,15.95
2022-12-23T16:51:46.767Z,15.10
2022-12-23T16:54:18.779Z,16.15
2022-12-23T16:56:50.162Z,17.02
2022-12-23T16:59:21.274Z,16.15
2022-12-23T17:01:51.646Z,15.40
2022-12-23T17:04:21.847Z,16.80
2022-12-23T17:06:53.163Z,19.98
2022-12-23T17:09:23.373Z,15.77
2022-12-23T17:11:53.960Z,16.45
2022-12-23T17:14:26.126Z,17.40
2022-12-23T17:16:56.392Z,14.98
2022-12-23T17:19:29.236Z,15.38
2022-12-23T17:22:02.853Z,17.23
2022-12-23T17:24:32.971Z,16.08
2022-12-23T17:27:13.701Z,17.88
2022-12-23T17:29:44.327Z,15.85
2022-12-23T17:32:16.910Z,16.45
2022-12-23T17:34:47.187Z,13.18
2022-12-23T17:37:19.822Z,13.82
2022-12-23T17:39:49.966Z,17.10
2022-12-23T17:42:25.867Z,15.15
2022-12-23T17:44:56.339Z,13.82
2022-12-23T17:47:27.763Z,13.00
2022-12-23T17:49:57.864Z,24.50
2022-12-23T17:52:28.092Z,17.35
2022-12-23T17:54:58.243Z,18.63
2022-12-23T17:57:28.395Z,15.00
2022-12-23T17:59:58.472Z,15.18
2022-12-23T18:02:33.292Z,14.18
2022-12-23T18:05:20.004Z,14.43
2022-12-23T18:07:51.868Z,13.23
2022-12-23T18:10:26.239Z,17.50
2022-12-23T18:12:59.939Z,21.48
2022-12-23T18:15:36.815Z,15.68
2022-12-23T18:18:26.433Z,16.40
2022-12-23T18:21:01.258Z,14.38
2022-12-23T18:23:33.882Z,16.77
2022-12-23T18:26:04.653Z,13.73
2022-12-23T18:28:34.870Z,16.45
2022-12-23T18:31:05.086Z,15.82
2022-12-23T18:33:35.257Z,17.15
2022-12-23T18:36:05.654Z,16.30
2022-12-23T18:38:35.823Z,13.82
2022-12-23T18:41:06.076Z,13.40
2022-12-23T18:43:36.149Z,16.30
2022-12-23T18:46:06.555Z,14.02
2022-12-23T18:48:36.738Z,12.82
2022-12-23T18:51:06.939Z,12.50
2022-12-23T18:53:37.117Z,12.15
2022-12-23T18:56:10.081Z,13.98
2022-12-23T18:58:40.318Z,11.57
2022-12-23T19:01:15.897Z,9.93
2022-12-23T19:03:46.442Z,8.73
2022-12-23T19:06:17.070Z,11.18
2022-12-23T19:08:47.335Z,10.23
2022-12-23T19:11:21.241Z,9.85
2022-12-23T19:13:51.829Z,10.27
2022-12-23T19:16:22.242Z,9.63
2022-12-23T19:18:52.500Z,10.43
2022-12-23T19:21:22.993Z,10.40
2022-12-23T19:23:53.200Z,11.50
2022-12-23T19:26:23.408Z,13.10
2022-12-23T19:28:53.577Z,11.52
2022-12-23T19:31:23.846Z,12.38
2022-12-23T19:33:54.047Z,12.50
2022-12-23T19:36:24.699Z,11.93
2022-12-23T19:38:57.156Z,13.10
2022-12-23T19:41:27.288Z,21.15
2022-12-23T19:44:00.600Z,17.20
2022-12-23T19:46:31.227Z,14.00
2022-12-23T19:49:01.393Z,12.18
2022-12-23T19:51:32.105Z,10.10
2022-12-23T19:54:03.297Z,10.45
2022-12-23T19:56:35.357Z,10.52
2022-12-23T19:59:05.492Z,10.25
2022-12-23T20:01:35.801Z,9.30
2022-12-23T20:04:07.017Z,8.40
2022-12-23T20:06:38.534Z,8.13
2022-12-23T20:09:11.451Z,8.65
2022-12-23T20:11:47.533Z,8.30
2022-12-23T20:14:18.957Z,9.13
2022-12-23T20:16:49.551Z,9.38
2022-12-23T20:19:20.075Z,9.70
2022-12-23T20:21:50.315Z,10.05
2022-12-23T20:24:20.535Z,11.80
2022-12-23T20:26:50.791Z,10.65
2022-12-23T20:29:20.950Z,11.88
2022-12-23T20:31:51.146Z,10.13
2022-12-23T20:34:21.382Z,11.68
2022-12-23T20:36:51.506Z,11.55
2022-12-23T20:39:21.741Z,12.00
2022-12-23T20:41:51.892Z,11.95
2022-12-23T20:44:34.652Z,10.40
2022-12-23T20:47:06.558Z,11.43
2022-12-23T20:49:36.809Z,12.65
2022-12-23T20:52:06.962Z,15.85
2022-12-23T20:54:37.105Z,17.52
2022-12-23T20:57:07.322Z,18.15
2022-12-23T20:59:37.428Z,17.45
2022-12-23T21:02:07.628Z,19.40
2022-12-23T21:04:37.865Z,18.55
2022-12-23T21:07:08.460Z,15.43
2022-12-23T21:09:38.628Z,12.68
2022-12-23T21:12:08.727Z,11.48
2022-12-23T21:14:38.955Z,10.20
2022-12-23T21:17:09.116Z,7.90
2022-12-23T21:19:39.328Z,7.53
2022-12-23T21:22:09.480Z,7.32
2022-12-23T21:24:39.621Z,6.47
2022-12-23T21:27:09.807Z,5.88
2022-12-23T21:29:39.952Z,6.10
2022-12-23T21:32:10.211Z,5.97
2022-12-23T21:34:40.301Z,5.90
2022-12-23T21:37:10.476Z,5.82
2022-12-23T21:39:40.660Z,6.38
2022-12-23T21:42:10.789Z,6.05
2022-12-23T21:44:40.949Z,6.95
2022-12-23T21:47:11.247Z,7.40
2022-12-23T21:49:42.540Z,7.38
2022-12-23T21:52:12.769Z,7.30
2022-12-23T21:54:42.947Z,7.47
2022-12-23T21:57:13.284Z,8.07
2022-12-23T21:59:43.491Z,9.60
2022-12-23T22:02:16.927Z,8.38
2022-12-23T22:04:47.241Z,9.60
2022-12-23T22:07:17.462Z,9.35
2022-12-23T22:09:47.663Z,12.00
2022-12-23T22:12:17.808Z,11.20
2022-12-23T22:14:48.050Z,11.90
2022-12-23T22:17:18.185Z,17.50
2022-12-23T22:19:48.418Z,30.20
2022-12-23T22:22:18.555Z,25.15
2022-12-23T22:24:48.684Z,39.30
2022-12-23T22:27:18.874Z,45.28
2022-12-23T22:29:49.011Z,31.83
2022-12-23T22:32:19.125Z,33.97
2022-12-23T22:34:49.248Z,36.47
2022-12-23T22:37:19.383Z,45.00
2022-12-23T22:39:49.567Z,40.17
2022-12-23T22:42:19.666Z,37.38
2022-12-23T22:44:49.849Z,39.45
2022-12-23T22:47:20.621Z,36.38
2022-12-23T22:49:50.938Z,36.60
2022-12-23T22:52:21.105Z,42.08
2022-12-23T22:54:51.217Z,42.88
2022-12-23T22:57:21.395Z,37.28
2022-12-23T22:59:51.754Z,35.97
2022-12-23T23:02:22.091Z,44.85
2022-12-23T23:04:52.617Z,46.55
2022-12-23T23:07:22.869Z,42.55
2022-12-23T23:09:53.002Z,43.55
2022-12-23T23:12:23.168Z,57.78
2022-12-23T23:14:53.449Z,54.50
2022-12-23T23:17:25.822Z,45.83
2022-12-23T23:19:56.256Z,44.60
2022-12-23T23:22:26.479Z,39.97
2022-12-23T23:24:59.695Z,54.78
2022-12-23T23:27:36.022Z,42.45
2022-12-23T23:30:07.020Z,37.72
2022-12-23T23:32:37.148Z,39.45
2022-12-23T23:35:10.844Z,42.10
2022-12-23T23:37:41.353Z,36.53
2022-12-23T23:40:11.729Z,35.05
2022-12-23T23:42:41.930Z,30.17
2022-12-23T23:45:12.139Z,26.17
2022-12-23T23:47:42.246Z,25.63
2022-12-23T23:50:12.385Z,22.77
2022-12-23T23:52:42.462Z,23.40
2022-12-23T23:55:13.028Z,20.08
2022-12-23T23:57:43.137Z,22.60
